createdAt,value
2023-06-17T00:00:31.192Z,43.04
2023-06-17T00:01:31.242Z,43.03
2023-06-17T00:02:32.342Z,43.03
2023-06-17T00:03:32.484Z,43.04
2023-06-17T00:04:32.418Z,42.99
2023-06-17T00:05:32.473Z,43.03
2023-06-17T00:06:32.496Z,43.02
2023-06-17T00:07:32.552Z,43.04
2023-06-17T00:08:32.595Z,43.04
2023-06-17T00:09:32.639Z,43.05
2023-06-17T00:10:32.737Z,43.04
2023-06-17T00:11:32.732Z,43.05
2023-06-17T00:12:32.769Z,43.06
2023-06-17T00:13:32.813Z,43.04
2023-06-17T00:14:31.880Z,43.03
2023-06-17T00:15:32.934Z,43.10
2023-06-17T00:16:32.973Z,43.05
2023-06-17T00:17:33.062Z,43.04
2023-06-17T00:18:33.064Z,43.06
2023-06-17T00:19:33.122Z,43.09
2023-06-17T00:20:32.164Z,43.06
2023-06-17T00:21:33.240Z,43.05
2023-06-17T00:22:33.284Z,43.01
2023-06-17T00:23:32.357Z,43.02
2023-06-17T00:24:33.423Z,43.04
2023-06-17T00:25:33.441Z,43.04
2023-06-17T00:26:33.524Z,43.05
2023-06-17T00:27:33.553Z,43.04
2023-06-17T00:28:33.643Z,43.03
2023-06-17T00:29:32.664Z,43.06
2023-06-17T00:30:32.728Z,43.05
2023-06-17T00:31:33.774Z,43.03
2023-06-17T00:32:33.922Z,43.05
2023-06-17T00:33:33.907Z,43.08
2023-06-17T00:34:34.018Z,43.08
2023-06-17T00:35:34.022Z,43.09
2023-06-17T00:36:34.083Z,43.06
2023-06-17T00:37:34.131Z,43.05
2023-06-17T00:38:34.199Z,43.03
2023-06-17T00:39:34.249Z,43.06
2023-06-17T00:40:34.310Z,43.08
2023-06-17T00:41:34.342Z,43.10
2023-06-17T00:42:34.447Z,43.08
2023-06-17T00:43:34.474Z,43.07
2023-06-17T00:44:34.524Z,43.06
2023-06-17T00:45:34.606Z,43.04
2023-06-17T00:46:34.659Z,43.04
2023-06-17T00:47:34.867Z,43.05
2023-06-17T00:48:34.772Z,43.04
2023-06-17T00:49:34.813Z,43.08
2023-06-17T00:50:34.872Z,43.07
2023-06-17T00:51:34.935Z,43.04
2023-06-17T00:52:41.893Z,43.04
2023-06-17T00:53:34.993Z,43.06
2023-06-17T00:54:34.988Z,43.06
2023-06-17T00:55:34.985Z,43.05
2023-06-17T00:56:34.963Z,43.05
2023-06-17T00:57:34.973Z,43.08
2023-06-17T00:58:33.980Z,43.05
2023-06-17T00:59:34.965Z,43.05
2023-06-17T01:00:34.953Z,43.06
2023-06-17T01:01:34.942Z,43.09
2023-06-17T01:02:34.996Z,43.04
2023-06-17T01:03:35.045Z,43.06
2023-06-17T01:04:34.927Z,43.06
2023-06-17T01:05:34.929Z,43.05
2023-06-17T01:06:34.932Z,43.07
2023-06-17T01:07:34.931Z,43.04
2023-06-17T01:08:34.884Z,43.09
2023-06-17T01:09:34.888Z,43.04
2023-06-17T01:10:34.879Z,43.06
2023-06-17T01:11:34.864Z,43.03
2023-06-17T01:12:34.863Z,43.08
2023-06-17T01:13:34.858Z,43.08
2023-06-17T01:14:34.894Z,43.09
2023-06-17T01:15:34.835Z,43.09
2023-06-17T01:16:34.977Z,43.07
2023-06-17T01:17:33.988Z,43.06
2023-06-17T01:18:35.004Z,43.06
2023-06-17T01:19:35.058Z,43.08
2023-06-17T01:20:34.161Z,43.05
2023-06-17T01:21:35.187Z,43.07
2023-06-17T01:22:35.240Z,43.06
2023-06-17T01:23:35.300Z,43.10
2023-06-17T01:24:35.423Z,43.06
2023-06-17T01:25:35.457Z,43.07
2023-06-17T01:26:35.496Z,43.09
2023-06-17T01:27:35.586Z,43.08
2023-06-17T01:28:35.587Z,43.08
2023-06-17T01:29:35.630Z,43.07
2023-06-17T01:30:35.711Z,43.08
2023-06-17T01:31:35.767Z,43.06
2023-06-17T01:32:35.799Z,43.08
2023-06-17T01:33:34.792Z,43.09
2023-06-17T01:34:35.812Z,43.08
2023-06-17T01:35:35.872Z,43.08
2023-06-17T01:36:35.881Z,43.09
2023-06-17T01:37:34.940Z,43.05
2023-06-17T01:38:35.973Z,43.09
2023-06-17T01:39:36.056Z,43.07
2023-06-17T01:40:36.099Z,43.09
2023-06-17T01:41:35.164Z,43.08
2023-06-17T01:42:36.240Z,43.07
2023-06-17T01:43:36.298Z,43.07
2023-06-17T01:44:36.337Z,43.07
2023-06-17T01:45:36.406Z,43.06
2023-06-17T01:46:36.510Z,43.05
2023-06-17T01:47:36.544Z,43.05
2023-06-17T01:48:35.627Z,43.05
2023-06-17T01:49:36.653Z,43.08
2023-06-17T01:50:36.698Z,43.06
2023-06-17T01:51:35.727Z,43.10
2023-06-17T01:52:36.758Z,43.06
2023-06-17T01:53:36.789Z,43.05
2023-06-17T01:54:36.844Z,43.03
2023-06-17T01:55:36.876Z,43.06
2023-06-17T01:56:36.917Z,43.05
2023-06-17T01:57:36.952Z,43.06
2023-06-17T01:58:37.038Z,43.05
2023-06-17T01:59:37.125Z,43.03
2023-06-17T02:00:36.150Z,43.05
2023-06-17T02:01:37.225Z,43.06
2023-06-17T02:02:37.340Z,43.06
2023-06-17T02:03:36.417Z,43.05
2023-06-17T02:04:37.384Z,43.09
2023-06-17T02:05:37.465Z,43.06
2023-06-17T02:06:37.516Z,43.06
2023-06-17T02:07:37.583Z,43.04
2023-06-17T02:08:37.626Z,43.06
2023-06-17T02:09:37.696Z,43.04
2023-06-17T02:10:37.741Z,43.07
2023-06-17T02:11:37.786Z,43.03
2023-06-17T02:12:37.850Z,43.06
2023-06-17T02:13:37.970Z,43.07
2023-06-17T02:14:37.938Z,43.06
2023-06-17T02:15:37.018Z,43.06
2023-06-17T02:16:38.166Z,43.06
2023-06-17T02:17:38.218Z,43.06
2023-06-17T02:18:38.186Z,43.05
2023-06-17T02:19:38.209Z,43.06
2023-06-17T02:20:37.274Z,43.04
2023-06-17T02:21:38.337Z,43.02
2023-06-17T02:22:38.362Z,43.02
2023-06-17T02:23:38.406Z,43.07
2023-06-17T02:24:38.461Z,43.05
2023-06-17T02:25:37.487Z,43.01
2023-06-17T02:26:37.501Z,43.05
2023-06-17T02:27:38.503Z,43.02
2023-06-17T02:28:38.548Z,43.05
2023-06-17T02:29:37.545Z,43.03
2023-06-17T02:30:37.606Z,43.04
2023-06-17T02:31:38.743Z,43.07
2023-06-17T02:32:38.768Z,43.01
2023-06-17T02:33:38.782Z,43.06
2023-06-17T02:34:38.862Z,43.05
2023-06-17T02:35:38.901Z,43.05
2023-06-17T02:36:38.969Z,43.07
2023-06-17T02:37:39.026Z,43.06
2023-06-17T02:38:39.093Z,43.06
2023-06-17T02:39:39.149Z,43.05
2023-06-17T02:40:39.213Z,43.05
2023-06-17T02:41:39.262Z,43.05
2023-06-17T02:42:38.324Z,43.04
2023-06-17T02:43:39.406Z,43.06
2023-06-17T02:44:39.459Z,43.04
2023-06-17T02:45:38.500Z,43.05
2023-06-17T02:46:39.614Z,43.02
2023-06-17T02:47:39.693Z,43.01
2023-06-17T02:48:39.692Z,43.07
2023-06-17T02:49:39.800Z,43.04
2023-06-17T02:50:38.825Z,43.07
2023-06-17T02:51:39.819Z,43.05
2023-06-17T02:52:39.857Z,43.02
2023-06-17T02:53:39.907Z,43.06
2023-06-17T02:54:39.955Z,43.02
2023-06-17T02:55:39.988Z,43.02
2023-06-17T02:56:40.066Z,43.04
2023-06-17T02:57:40.101Z,43.06
2023-06-17T02:58:39.116Z,43.02
2023-06-17T02:59:39.124Z,43.02
2023-06-17T03:00:40.221Z,43.04
2023-06-17T03:01:40.191Z,43.04
2023-06-17T03:02:40.326Z,43.02
2023-06-17T03:03:40.243Z,43.02
2023-06-17T03:04:39.288Z,43.05
2023-06-17T03:05:40.338Z,43.05
2023-06-17T03:06:40.393Z,43.04
2023-06-17T03:07:40.394Z,43.06
2023-06-17T03:08:40.438Z,43.04
2023-06-17T03:09:40.452Z,43.04
2023-06-17T03:10:40.469Z,43.03
2023-06-17T03:11:40.472Z,43.05
2023-06-17T03:12:40.474Z,43.03
2023-06-17T03:13:40.469Z,43.04
2023-06-17T03:14:40.503Z,43.07
2023-06-17T03:15:39.490Z,43.04
2023-06-17T03:16:40.484Z,43.04
2023-06-17T03:17:39.545Z,43.04
2023-06-17T03:18:39.500Z,43.02
2023-06-17T03:19:40.525Z,43.02
2023-06-17T03:20:40.525Z,43.06
2023-06-17T03:21:41.517Z,43.07
2023-06-17T03:22:40.573Z,43.03
2023-06-17T03:23:40.575Z,43.04
2023-06-17T03:24:40.624Z,43.05
2023-06-17T03:25:40.609Z,43.05
2023-06-17T03:26:39.676Z,43.05
2023-06-17T03:27:40.668Z,43.03
2023-06-17T03:28:39.671Z,43.03
2023-06-17T03:29:40.681Z,43.03
2023-06-17T03:30:40.738Z,42.99
2023-06-17T03:31:39.708Z,43.02
2023-06-17T03:32:40.755Z,43.01
2023-06-17T03:33:40.756Z,43.03
2023-06-17T03:34:40.754Z,43.03
2023-06-17T03:35:40.769Z,43.02
2023-06-17T03:36:40.771Z,43.00
2023-06-17T03:37:40.801Z,43.03
2023-06-17T03:38:40.830Z,43.00
2023-06-17T03:39:40.871Z,43.03
2023-06-17T03:40:40.880Z,43.00
2023-06-17T03:41:40.881Z,42.99
2023-06-17T03:42:40.932Z,43.05
2023-06-17T03:43:40.941Z,43.06
2023-06-17T03:44:40.969Z,43.06
2023-06-17T03:45:40.978Z,43.04
2023-06-17T03:46:40.958Z,43.05
2023-06-17T03:47:40.978Z,43.03
2023-06-17T03:48:40.946Z,43.03
2023-06-17T03:49:40.965Z,43.04
2023-06-17T03:50:39.938Z,43.04
2023-06-17T03:51:39.940Z,43.04
2023-06-17T03:52:40.958Z,43.04
2023-06-17T03:53:41.041Z,43.04
2023-06-17T03:54:40.970Z,43.06
2023-06-17T03:55:41.003Z,43.04
2023-06-17T03:56:40.939Z,43.05
2023-06-17T03:57:40.974Z,43.06
2023-06-17T03:58:40.945Z,43.02
2023-06-17T03:59:40.980Z,43.02
2023-06-17T04:00:40.947Z,43.03
2023-06-17T04:01:39.985Z,43.03
2023-06-17T04:02:41.077Z,43.05
2023-06-17T04:03:41.045Z,43.07
2023-06-17T04:04:41.126Z,43.08
2023-06-17T04:05:40.936Z,43.02
2023-06-17T04:06:40.968Z,43.03
2023-06-17T04:07:40.957Z,43.06
2023-06-17T04:08:39.952Z,43.05
2023-06-17T04:09:43.842Z,43.07
2023-06-17T04:10:40.972Z,43.09
2023-06-17T04:11:40.936Z,43.04
2023-06-17T04:12:39.950Z,43.06
2023-06-17T04:13:40.926Z,43.05
2023-06-17T04:14:40.908Z,43.06
2023-06-17T04:15:40.905Z,43.08
2023-06-17T04:16:40.899Z,43.05
2023-06-17T04:17:40.925Z,43.09
2023-06-17T04:18:40.901Z,43.06
2023-06-17T04:19:40.907Z,43.06
2023-06-17T04:20:40.877Z,43.05
2023-06-17T04:21:40.858Z,43.09
2023-06-17T04:22:40.859Z,43.07
2023-06-17T04:23:40.869Z,43.07
2023-06-17T04:24:40.929Z,43.04
2023-06-17T04:25:40.864Z,43.04
2023-06-17T04:26:40.870Z,43.07
2023-06-17T04:27:40.841Z,43.03
2023-06-17T04:28:40.819Z,43.08
2023-06-17T04:29:40.829Z,43.04
2023-06-17T04:30:40.809Z,43.06
2023-06-17T04:31:40.894Z,43.03
2023-06-17T04:32:40.922Z,43.04
2023-06-17T04:33:40.794Z,43.03
2023-06-17T04:34:40.790Z,43.03
2023-06-17T04:35:40.783Z,43.04
2023-06-17T04:36:40.766Z,43.03
2023-06-17T04:37:40.785Z,43.05
2023-06-17T04:38:39.989Z,43.03
2023-06-17T04:39:40.762Z,43.00
2023-06-17T04:40:40.757Z,43.03
2023-06-17T04:41:39.738Z,43.04
2023-06-17T04:42:40.753Z,43.05
2023-06-17T04:43:40.737Z,43.03
2023-06-17T04:44:40.712Z,43.01
2023-06-17T04:45:40.718Z,43.01
2023-06-17T04:46:40.740Z,43.01
2023-06-17T04:47:39.773Z,43.01
2023-06-17T04:48:40.691Z,43.01
2023-06-17T04:49:39.688Z,43.01
2023-06-17T04:50:40.679Z,43.01
2023-06-17T04:51:40.675Z,42.99
2023-06-17T04:52:40.665Z,43.03
2023-06-17T04:53:39.653Z,43.02
2023-06-17T04:54:40.648Z,43.02
2023-06-17T04:55:39.636Z,43.04
2023-06-17T04:56:40.629Z,43.05
2023-06-17T04:57:40.633Z,43.04
2023-06-17T04:58:40.645Z,43.02
2023-06-17T04:59:40.616Z,43.05
2023-06-17T05:00:39.673Z,43.00
2023-06-17T05:01:40.601Z,43.01
2023-06-17T05:02:40.662Z,43.02
2023-06-17T05:03:40.670Z,43.01
2023-06-17T05:04:40.583Z,42.98
2023-06-17T05:05:40.575Z,43.01
2023-06-17T05:06:40.574Z,43.00
2023-06-17T05:07:40.564Z,43.03
2023-06-17T05:08:40.547Z,43.03
2023-06-17T05:09:40.548Z,43.00
2023-06-17T05:10:40.558Z,43.01
2023-06-17T05:11:39.543Z,43.01
2023-06-17T05:12:40.528Z,43.01
2023-06-17T05:13:40.517Z,43.00
2023-06-17T05:14:40.538Z,42.99
2023-06-17T05:15:40.500Z,43.02
2023-06-17T05:16:40.554Z,43.00
2023-06-17T05:17:41.448Z,43.00
2023-06-17T05:18:40.518Z,43.02
2023-06-17T05:19:40.487Z,43.00
2023-06-17T05:20:40.475Z,43.04
2023-06-17T05:21:40.464Z,42.96
2023-06-17T05:22:40.482Z,42.99
2023-06-17T05:23:40.456Z,42.96
2023-06-17T05:24:40.588Z,42.98
2023-06-17T05:25:39.454Z,42.96
2023-06-17T05:26:40.457Z,42.96
2023-06-17T05:27:40.451Z,42.98
2023-06-17T05:28:39.449Z,42.97
2023-06-17T05:29:40.627Z,42.97
2023-06-17T05:30:40.484Z,42.96
2023-06-17T05:31:40.401Z,42.96
2023-06-17T05:32:40.490Z,42.94
2023-06-17T05:33:40.422Z,42.96
2023-06-17T05:34:40.404Z,42.96
2023-06-17T05:35:40.385Z,42.97
2023-06-17T05:36:40.376Z,42.95
2023-06-17T05:37:40.381Z,42.96
2023-06-17T05:38:40.361Z,42.96
2023-06-17T05:39:40.361Z,42.93
2023-06-17T05:40:40.350Z,42.93
2023-06-17T05:41:39.333Z,42.94
2023-06-17T05:42:39.338Z,42.93
2023-06-17T05:43:39.347Z,42.92
2023-06-17T05:44:39.347Z,42.92
2023-06-17T05:45:40.327Z,42.92
2023-06-17T05:46:40.371Z,42.89
2023-06-17T05:47:39.337Z,42.89
2023-06-17T05:48:40.298Z,42.88
2023-06-17T05:49:40.326Z,42.88
2023-06-17T05:50:40.279Z,42.87
2023-06-17T05:51:40.287Z,42.87
2023-06-17T05:52:40.282Z,42.89
2023-06-17T05:53:39.271Z,42.88
2023-06-17T05:54:40.269Z,42.89
2023-06-17T05:55:40.262Z,42.88
2023-06-17T05:56:39.255Z,42.88
2023-06-17T05:57:39.236Z,42.85
2023-06-17T05:58:40.238Z,42.86
2023-06-17T05:59:39.214Z,42.83
2023-06-17T06:00:39.234Z,42.83
2023-06-17T06:01:39.310Z,42.87
2023-06-17T06:02:40.373Z,42.87
2023-06-17T06:03:40.340Z,42.87
2023-06-17T06:04:40.355Z,42.83
2023-06-17T06:05:40.388Z,42.83
2023-06-17T06:06:40.435Z,42.84
2023-06-17T06:07:40.450Z,42.84
2023-06-17T06:08:40.489Z,42.82
2023-06-17T06:09:40.498Z,42.81
2023-06-17T06:10:40.544Z,42.85
2023-06-17T06:11:40.566Z,42.84
2023-06-17T06:12:40.602Z,42.81
2023-06-17T06:13:40.679Z,42.84
2023-06-17T06:14:39.704Z,42.84
2023-06-17T06:15:40.759Z,42.85
2023-06-17T06:16:40.855Z,42.80
2023-06-17T06:17:40.875Z,42.83
2023-06-17T06:18:40.966Z,42.82
2023-06-17T06:19:40.981Z,42.82
2023-06-17T06:20:41.039Z,42.84
2023-06-17T06:21:41.113Z,42.81
2023-06-17T06:22:41.160Z,42.82
2023-06-17T06:23:41.258Z,42.80
2023-06-17T06:24:41.406Z,42.81
2023-06-17T06:25:41.380Z,42.79
2023-06-17T06:26:41.427Z,42.82
2023-06-17T06:27:40.472Z,42.79
2023-06-17T06:28:41.588Z,42.78
2023-06-17T06:29:41.594Z,42.78
2023-06-17T06:30:41.642Z,42.78
2023-06-17T06:31:41.719Z,42.80
2023-06-17T06:32:40.815Z,42.75
2023-06-17T06:33:41.834Z,42.77
2023-06-17T06:34:41.908Z,42.76
2023-06-17T06:35:41.953Z,42.75
2023-06-17T06:36:40.996Z,42.79
2023-06-17T06:37:42.064Z,42.76
2023-06-17T06:38:41.119Z,42.77
2023-06-17T06:39:42.183Z,42.75
2023-06-17T06:40:42.204Z,42.72
2023-06-17T06:41:42.283Z,42.72
2023-06-17T06:42:42.327Z,42.72
2023-06-17T06:43:41.432Z,42.75
2023-06-17T06:44:42.442Z,42.73
2023-06-17T06:45:42.559Z,42.74
2023-06-17T06:46:41.562Z,42.72
2023-06-17T06:47:42.654Z,42.70
2023-06-17T06:48:42.655Z,42.73
2023-06-17T06:49:42.713Z,42.72
2023-06-17T06:50:42.794Z,42.71
2023-06-17T06:51:42.830Z,42.70
2023-06-17T06:52:41.882Z,42.67
2023-06-17T06:53:42.934Z,42.71
2023-06-17T06:54:43.008Z,42.69
2023-06-17T06:55:43.035Z,42.69
2023-06-17T06:56:43.106Z,42.68
2023-06-17T06:57:43.145Z,42.66
2023-06-17T06:58:43.227Z,42.67
2023-06-17T06:59:43.267Z,42.66
2023-06-17T07:00:43.311Z,42.67
2023-06-17T07:01:43.397Z,42.64
2023-06-17T07:02:43.489Z,42.65
2023-06-17T07:03:43.495Z,42.64
2023-06-17T07:04:43.608Z,42.66
2023-06-17T07:05:42.584Z,42.65
2023-06-17T07:06:43.673Z,42.62
2023-06-17T07:07:43.706Z,42.62
2023-06-17T07:08:43.758Z,42.63
2023-06-17T07:09:43.810Z,42.62
2023-06-17T07:10:43.854Z,42.61
2023-06-17T07:11:43.903Z,42.61
2023-06-17T07:12:42.960Z,42.58
2023-06-17T07:13:44.020Z,42.58
2023-06-17T07:14:44.057Z,42.57
2023-06-17T07:15:44.095Z,42.59
2023-06-17T07:16:43.208Z,42.58
2023-06-17T07:17:44.231Z,42.55
2023-06-17T07:18:44.290Z,42.56
2023-06-17T07:19:44.325Z,42.57
2023-06-17T07:20:44.402Z,42.53
2023-06-17T07:21:44.417Z,42.54
2023-06-17T07:22:44.534Z,42.55
2023-06-17T07:23:44.526Z,42.54
2023-06-17T07:24:44.597Z,42.52
2023-06-17T07:25:44.642Z,42.54
2023-06-17T07:26:44.703Z,42.49
2023-06-17T07:27:43.753Z,42.52
2023-06-17T07:28:43.829Z,42.49
2023-06-17T07:29:44.861Z,42.48
2023-06-17T07:30:43.964Z,42.49
2023-06-17T07:31:45.006Z,42.49
2023-06-17T07:32:45.061Z,42.49
2023-06-17T07:33:45.076Z,42.50
2023-06-17T07:34:45.112Z,42.47
2023-06-17T07:35:45.150Z,42.46
2023-06-17T07:36:45.225Z,42.46
2023-06-17T07:37:45.246Z,42.46
2023-06-17T07:38:44.673Z,42.47
2023-06-17T07:39:44.359Z,42.47
2023-06-17T07:40:44.420Z,42.48
2023-06-17T07:41:44.474Z,42.46
2023-06-17T07:42:45.538Z,42.49
2023-06-17T07:43:45.576Z,42.48
2023-06-17T07:44:45.605Z,42.46
2023-06-17T07:45:44.727Z,42.47
2023-06-17T07:46:45.783Z,42.47
2023-06-17T07:47:45.754Z,42.46
2023-06-17T07:48:45.789Z,42.46
2023-06-17T07:49:44.821Z,42.48
2023-06-17T07:50:45.841Z,42.46
2023-06-17T07:51:45.879Z,42.46
2023-06-17T07:52:45.953Z,42.47
2023-06-17T07:53:45.978Z,42.46
2023-06-17T07:54:45.061Z,42.45
2023-06-17T07:55:46.049Z,42.45
2023-06-17T07:56:45.071Z,42.43
2023-06-17T07:57:46.139Z,42.44
2023-06-17T07:58:45.214Z,42.44
2023-06-17T07:59:45.203Z,42.43
2023-06-17T08:00:46.231Z,42.44
2023-06-17T08:01:46.363Z,42.43
2023-06-17T08:02:46.398Z,42.43
2023-06-17T08:03:46.436Z,42.41
2023-06-17T08:04:46.402Z,42.42
2023-06-17T08:05:46.418Z,42.39
2023-06-17T08:06:46.442Z,42.41
2023-06-17T08:07:46.483Z,42.39
2023-06-17T08:08:46.549Z,42.38
2023-06-17T08:09:45.539Z,42.41
2023-06-17T08:10:46.611Z,42.39
2023-06-17T08:11:46.616Z,42.40
2023-06-17T08:12:46.667Z,42.40
2023-06-17T08:13:46.748Z,42.41
2023-06-17T08:14:46.745Z,42.40
2023-06-17T08:15:45.790Z,42.40
2023-06-17T08:16:46.919Z,42.41
2023-06-17T08:17:46.926Z,42.40
2023-06-17T08:18:46.887Z,42.39
2023-06-17T08:19:46.929Z,42.42
2023-06-17T08:20:46.966Z,42.41
2023-06-17T08:21:47.020Z,42.43
2023-06-17T08:22:46.046Z,42.44
2023-06-17T08:23:47.098Z,42.43
2023-06-17T08:24:47.114Z,42.42
2023-06-17T08:25:47.198Z,42.39
2023-06-17T08:26:47.237Z,42.42
2023-06-17T08:27:47.222Z,42.42
2023-06-17T08:28:46.284Z,42.41
2023-06-17T08:29:47.312Z,42.43
2023-06-17T08:30:47.342Z,42.42
2023-06-17T08:31:47.363Z,42.41
2023-06-17T08:32:47.425Z,42.42
2023-06-17T08:33:47.470Z,42.40
2023-06-17T08:34:47.487Z,42.42
2023-06-17T08:35:47.526Z,42.42
2023-06-17T08:36:46.613Z,42.42
2023-06-17T08:37:46.605Z,42.41
2023-06-17T08:38:46.649Z,42.40
2023-06-17T08:39:47.668Z,42.39
2023-06-17T08:40:47.703Z,42.42
2023-06-17T08:41:47.740Z,42.40
2023-06-17T08:42:46.836Z,42.39
2023-06-17T08:43:47.841Z,42.40
2023-06-17T08:44:46.851Z,42.41
2023-06-17T08:45:47.934Z,42.40
2023-06-17T08:46:47.933Z,42.41
2023-06-17T08:47:47.075Z,42.45
2023-06-17T08:48:48.004Z,42.40
2023-06-17T08:49:48.044Z,42.43
2023-06-17T08:50:48.089Z,42.43
2023-06-17T08:51:48.106Z,42.43
2023-06-17T08:52:48.149Z,42.41
2023-06-17T08:53:48.201Z,42.43
2023-06-17T08:54:48.223Z,42.43
2023-06-17T08:55:48.267Z,42.41
2023-06-17T08:56:48.315Z,42.42
2023-06-17T08:57:48.348Z,42.42
2023-06-17T08:58:48.413Z,42.42
2023-06-17T08:59:47.427Z,42.42
2023-06-17T09:00:48.504Z,42.42
2023-06-17T09:01:48.502Z,42.41
2023-06-17T09:02:48.595Z,42.44
2023-06-17T09:03:47.588Z,42.42
2023-06-17T09:04:48.665Z,42.40
2023-06-17T09:05:48.659Z,42.42
2023-06-17T09:06:47.693Z,42.44
2023-06-17T09:07:48.743Z,42.43
2023-06-17T09:08:48.774Z,42.42
2023-06-17T09:09:48.812Z,42.41
2023-06-17T09:10:48.837Z,42.42
2023-06-17T09:11:49.859Z,42.43
2023-06-17T09:12:48.894Z,42.44
2023-06-17T09:13:48.875Z,42.41
2023-06-17T09:14:48.879Z,42.39
2023-06-17T09:15:47.847Z,42.44
2023-06-17T09:16:48.859Z,42.39
2023-06-17T09:17:49.001Z,42.40
2023-06-17T09:18:48.833Z,42.40
2023-06-17T09:19:48.811Z,42.40
2023-06-17T09:20:47.808Z,42.41
2023-06-17T09:21:48.846Z,42.41
2023-06-17T09:22:47.804Z,42.41
2023-06-17T09:23:48.891Z,42.42
2023-06-17T09:24:48.792Z,42.41
2023-06-17T09:25:48.787Z,42.41
2023-06-17T09:26:48.771Z,42.41
2023-06-17T09:28:05.399Z,42.39
2023-06-17T09:28:48.755Z,42.45
2023-06-17T09:29:47.740Z,42.41
2023-06-17T09:30:48.763Z,42.44
2023-06-17T09:31:48.724Z,42.43
2023-06-17T09:32:48.761Z,42.41
2023-06-17T09:33:48.725Z,42.41
2023-06-17T09:34:48.715Z,42.44
2023-06-17T09:35:48.761Z,42.44
2023-06-17T09:36:48.705Z,42.40
2023-06-17T09:38:02.679Z,42.40
2023-06-17T09:38:48.702Z,42.42
2023-06-17T09:39:48.687Z,42.42
2023-06-17T09:40:47.685Z,42.43
2023-06-17T09:41:48.662Z,42.41
2023-06-17T09:42:48.654Z,42.43
2023-06-17T09:43:47.658Z,42.39
2023-06-17T09:44:48.648Z,42.38
2023-06-17T09:45:48.666Z,42.41
2023-06-17T09:46:48.681Z,42.40
2023-06-17T09:47:48.666Z,42.41
2023-06-17T09:48:48.616Z,42.41
2023-06-17T09:49:48.603Z,42.40
2023-06-17T09:50:47.618Z,42.44
2023-06-17T09:51:47.604Z,42.40
2023-06-17T09:52:48.616Z,42.42
2023-06-17T09:53:48.611Z,42.38
2023-06-17T09:54:48.582Z,42.37
2023-06-17T09:55:48.558Z,42.41
2023-06-17T09:56:48.567Z,42.36
2023-06-17T09:57:48.553Z,42.39
2023-06-17T09:58:47.555Z,42.40
2023-06-17T09:59:48.555Z,42.38
2023-06-17T10:00:47.543Z,42.41
2023-06-17T10:01:48.604Z,42.39
2023-06-17T10:02:48.623Z,42.40
2023-06-17T10:03:48.586Z,42.41
2023-06-17T10:04:48.502Z,42.40
2023-06-17T10:05:48.488Z,42.41
2023-06-17T10:06:48.507Z,42.40
2023-06-17T10:07:48.476Z,42.39
2023-06-17T10:08:47.480Z,42.39
2023-06-17T10:09:48.458Z,42.36
2023-06-17T10:10:48.480Z,42.37
2023-06-17T10:11:47.452Z,42.39
2023-06-17T10:12:48.456Z,42.39
2023-06-17T10:13:48.444Z,42.37
2023-06-17T10:14:48.440Z,42.38
2023-06-17T10:15:48.480Z,42.40
2023-06-17T10:16:48.492Z,42.37
2023-06-17T10:17:48.571Z,42.38
2023-06-17T10:18:48.601Z,42.39
2023-06-17T10:19:47.618Z,42.35
2023-06-17T10:20:48.651Z,42.40
2023-06-17T10:21:48.727Z,42.37
2023-06-17T10:22:48.720Z,42.39
2023-06-17T10:23:48.841Z,42.39
2023-06-17T10:24:48.809Z,42.38
2023-06-17T10:25:48.838Z,42.37
2023-06-17T10:26:51.014Z,42.37
2023-06-17T10:27:48.882Z,42.38
2023-06-17T10:28:48.850Z,42.38
2023-06-17T10:29:48.854Z,42.42
2023-06-17T10:30:48.837Z,42.39
2023-06-17T10:31:48.844Z,42.36
2023-06-17T10:32:50.968Z,42.38
2023-06-17T10:33:48.822Z,42.39
2023-06-17T10:34:48.831Z,42.36
2023-06-17T10:35:48.814Z,42.36
2023-06-17T10:36:48.797Z,42.37
2023-06-17T10:37:48.796Z,42.37
2023-06-17T10:38:50.530Z,42.37
2023-06-17T10:39:48.764Z,42.37
2023-06-17T10:40:48.832Z,42.35
2023-06-17T10:41:48.753Z,42.37
2023-06-17T10:42:48.757Z,42.39
2023-06-17T10:43:48.768Z,42.38
2023-06-17T10:44:50.164Z,42.35
2023-06-17T10:45:48.764Z,42.39
2023-06-17T10:46:48.722Z,42.36
2023-06-17T10:47:48.732Z,42.37
2023-06-17T10:48:48.733Z,42.39
2023-06-17T10:49:48.716Z,42.38
2023-06-17T10:50:51.107Z,42.37
2023-06-17T10:52:47.675Z,42.38
2023-06-17T10:53:48.711Z,42.39
2023-06-17T10:54:48.672Z,42.36
2023-06-17T10:55:48.664Z,42.36
2023-06-17T10:56:48.650Z,42.36
2023-06-17T10:57:48.653Z,42.36
2023-06-17T10:58:48.661Z,42.37
2023-06-17T10:59:48.641Z,42.36
2023-06-17T11:00:48.628Z,42.37
2023-06-17T11:01:49.910Z,42.34
2023-06-17T11:02:48.750Z,42.36
2023-06-17T11:03:48.687Z,42.36
2023-06-17T11:04:48.611Z,42.33
2023-06-17T11:05:48.627Z,42.36
2023-06-17T11:06:48.702Z,42.36
2023-06-17T11:07:48.713Z,42.34
2023-06-17T11:08:47.740Z,42.36
2023-06-17T11:09:47.888Z,42.37
2023-06-17T11:10:48.849Z,42.36
2023-06-17T11:11:47.888Z,42.36
2023-06-17T11:12:49.748Z,42.37
2023-06-17T11:13:48.868Z,42.36
2023-06-17T11:14:47.872Z,42.37
2023-06-17T11:15:48.843Z,42.33
2023-06-17T11:16:47.888Z,42.37
2023-06-17T11:17:47.867Z,42.36
2023-06-17T11:18:50.121Z,42.34
2023-06-17T11:19:48.834Z,42.39
2023-06-17T11:20:48.851Z,42.36
2023-06-17T11:21:47.804Z,42.37
2023-06-17T11:22:48.841Z,42.34
2023-06-17T11:23:48.841Z,42.38
2023-06-17T11:24:48.806Z,42.36
2023-06-17T11:25:48.897Z,42.36
2023-06-17T11:26:47.786Z,42.39
2023-06-17T11:27:48.759Z,42.36
2023-06-17T11:28:48.758Z,42.36
2023-06-17T11:29:48.763Z,42.35
2023-06-17T11:30:48.773Z,42.35
2023-06-17T11:31:48.765Z,42.35
2023-06-17T11:32:48.804Z,42.35
2023-06-17T11:33:48.738Z,42.35
2023-06-17T11:34:47.739Z,42.35
2023-06-17T11:35:48.716Z,42.34
2023-06-17T11:36:48.714Z,42.35
2023-06-17T11:37:48.712Z,42.34
2023-06-17T11:38:48.725Z,42.34
2023-06-17T11:39:48.740Z,42.35
2023-06-17T11:40:47.681Z,42.35
2023-06-17T11:41:48.677Z,42.36
2023-06-17T11:42:48.667Z,42.32
2023-06-17T11:43:48.653Z,42.35
2023-06-17T11:44:47.676Z,42.35
2023-06-17T11:45:48.649Z,42.33
2023-06-17T11:46:48.660Z,42.33
2023-06-17T11:47:48.669Z,42.32
2023-06-17T11:48:48.621Z,42.35
2023-06-17T11:49:47.614Z,42.34
2023-06-17T11:50:48.611Z,42.36
2023-06-17T11:51:48.605Z,42.36
2023-06-17T11:52:47.594Z,42.33
2023-06-17T11:53:48.586Z,42.35
2023-06-17T11:54:48.634Z,42.33
2023-06-17T11:55:48.570Z,42.33
2023-06-17T11:56:48.603Z,42.35
2023-06-17T11:57:48.647Z,42.36
2023-06-17T11:58:48.689Z,42.36
2023-06-17T11:59:48.725Z,42.34
2023-06-17T12:00:47.736Z,42.33
2023-06-17T12:01:48.812Z,42.35
2023-06-17T12:02:48.939Z,42.33
2023-06-17T12:03:47.922Z,42.34
2023-06-17T12:04:48.939Z,42.35
2023-06-17T12:05:47.937Z,42.33
2023-06-17T12:06:48.969Z,42.35
2023-06-17T12:07:48.002Z,42.34
2023-06-17T12:08:49.033Z,42.33
2023-06-17T12:09:49.068Z,42.33
2023-06-17T12:10:49.129Z,42.35
2023-06-17T12:11:49.132Z,42.35
2023-06-17T12:12:48.166Z,42.34
2023-06-17T12:13:48.208Z,42.35
2023-06-17T12:14:49.246Z,42.35
2023-06-17T12:15:49.254Z,42.34
2023-06-17T12:16:49.289Z,42.33
2023-06-17T12:17:49.384Z,42.36
2023-06-17T12:18:49.365Z,42.36
2023-06-17T12:19:49.423Z,42.36
2023-06-17T12:20:49.447Z,42.35
2023-06-17T12:21:49.446Z,42.35
2023-06-17T12:22:49.494Z,42.37
2023-06-17T12:23:48.508Z,42.36
2023-06-17T12:24:49.541Z,42.36
2023-06-17T12:25:49.577Z,42.33
2023-06-17T12:26:49.634Z,42.34
2023-06-17T12:27:49.660Z,42.36
2023-06-17T12:28:49.688Z,42.38
2023-06-17T12:29:48.717Z,42.35
2023-06-17T12:30:49.733Z,42.35
2023-06-17T12:31:49.787Z,42.35
2023-06-17T12:32:49.842Z,42.35
2023-06-17T12:33:49.852Z,42.35
2023-06-17T12:34:49.888Z,42.34
2023-06-17T12:35:49.908Z,42.34
2023-06-17T12:36:49.941Z,42.35
2023-06-17T12:37:48.979Z,42.34
2023-06-17T12:38:50.028Z,42.34
2023-06-17T12:39:50.050Z,42.34
2023-06-17T12:40:50.092Z,42.34
2023-06-17T12:41:50.126Z,42.35
2023-06-17T12:42:49.173Z,42.34
2023-06-17T12:43:50.211Z,42.35
2023-06-17T12:44:50.227Z,42.33
2023-06-17T12:45:49.313Z,42.32
2023-06-17T12:46:50.297Z,42.35
2023-06-17T12:47:49.370Z,42.34
2023-06-17T12:48:50.386Z,42.36
2023-06-17T12:49:50.424Z,42.33
2023-06-17T12:50:50.453Z,42.33
2023-06-17T12:51:50.480Z,42.35
2023-06-17T12:52:50.525Z,42.33
2023-06-17T12:53:50.556Z,42.35